sensor_id;sensor_type;location;lat;lon;timestamp;temperature;humidity
35313;DHT22;21425;50.454;30.466;2022-12-18T00:43:31;-1.40;99.90
35313;DHT22;21425;50.454;30.466;2022-12-18T00:45:57;-1.40;99.90
35313;DHT22;21425;50.454;30.466;2022-12-18T00:48:22;-1.40;99.90
35313;DHT22;21425;50.454;30.466;2022-12-18T00:50:49;-1.50;99.90
35313;DHT22;21425;50.454;30.466;2022-12-18T00:53:15;-1.50;99.90
35313;DHT22;21425;50.454;30.466;2022-12-18T00:55:41;-1.50;99.90
35313;DHT22;21425;50.454;30.466;2022-12-18T00:58:08;-1.70;99.90
35313;DHT22;21425;50.454;30.466;2022-12-18T01:00:34;-1.60;99.90
35313;DHT22;21425;50.454;30.466;2022-12-18T01:03:00;-1.70;99.90
35313;DHT22;21425;50.454;30.466;2022-12-18T01:05:26;-1.90;99.90
35313;DHT22;21425;50.454;30.466;2022-12-18T01:07:51;-1.70;99.90
35313;DHT22;21425;50.454;30.466;2022-12-18T01:10:17;-1.80;99.90
35313;DHT22;21425;50.454;30.466;2022-12-18T01:12:43;-1.80;99.90
35313;DHT22;21425;50.454;30.466;2022-12-18T01:15:09;-1.90;99.90
35313;DHT22;21425;50.454;30.466;2022-12-18T01:17:36;-1.80;99.90
35313;DHT22;21425;50.454;30.466;2022-12-18T01:20:01;-1.90;99.90
35313;DHT22;21425;50.454;30.466;2022-12-18T01:22:27;-2.00;99.90
35313;DHT22;21425;50.454;30.466;2022-12-18T01:24:53;-1.80;99.90
35313;DHT22;21425;50.454;30.466;2022-12-18T01:27:18;-2.00;99.90
35313;DHT22;21425;50.454;30.466;2022-12-18T01:29:44;-1.90;99.90
35313;DHT22;21425;50.454;30.466;2022-12-18T01:32:09;-2.00;99.90
35313;DHT22;21425;50.454;30.466;2022-12-18T01:34:36;-2.00;99.90
35313;DHT22;21425;50.454;30.466;2022-12-18T01:37:05;-1.90;99.90
35313;DHT22;21425;50.454;30.466;2022-12-18T01:39:31;-1.80;99.90
35313;DHT22;21425;50.454;30.466;2022-12-18T01:42:19;-1.90;99.90
35313;DHT22;21425;50.454;30.466;2022-12-18T01:45:03;-2.00;99.90
35313;DHT22;21425;50.454;30.466;2022-12-18T01:47:43;-2.00;99.90
35313;DHT22;21425;50.454;30.466;2022-12-18T01:52:34;-2.00;99.90
35313;DHT22;21425;50.454;30.466;2022-12-18T01:55:02;-2.00;99.90
35313;DHT22;21425;50.454;30.466;2022-12-18T01:57:28;-2.20;99.90
35313;DHT22;21425;50.454;30.466;2022-12-18T01:59:59;-2.00;99.90
35313;DHT22;21425;50.454;30.466;2022-12-18T02:02:30;-2.10;99.90
35313;DHT22;21425;50.454;30.466;2022-12-18T02:04:55;-2.20;99.90
35313;DHT22;21425;50.454;30.466;2022-12-18T02:07:43;-2.20;99.90
35313;DHT22;21425;50.454;30.466;2022-12-18T02:13:09;-2.20;99.90
35313;DHT22;21425;50.454;30.466;2022-12-18T02:16:49;-2.20;99.90
35313;DHT22;21425;50.454;30.466;2022-12-18T02:18:45;-2.30;99.90
35313;DHT22;21425;50.454;30.466;2022-12-18T02:21:36;-2.10;99.90
35313;DHT22;21425;50.454;30.466;2022-12-18T02:24:18;-2.30;99.90
35313;DHT22;21425;50.454;30.466;2022-12-18T02:26:59;-2.30;99.90
35313;DHT22;21425;50.454;30.466;2022-12-18T02:32:09;-2.20;99.90
35313;DHT22;21425;50.454;30.466;2022-12-18T02:34:38;-2.40;99.90
35313;DHT22;21425;50.454;30.466;2022-12-18T02:37:07;-2.30;99.90
35313;DHT22;21425;50.454;30.466;2022-12-18T02:39:35;-2.30;99.90
35313;DHT22;21425;50.454;30.466;2022-12-18T02:42:02;-2.30;99.90
35313;DHT22;21425;50.454;30.466;2022-12-18T02:44:34;-2.30;99.90
35313;DHT22;21425;50.454;30.466;2022-12-18T02:47:00;-2.40;99.90
35313;DHT22;21425;50.454;30.466;2022-12-18T02:49:36;-2.30;99.90
35313;DHT22;21425;50.454;30.466;2022-12-18T02:55:13;-2.30;99.90
35313;DHT22;21425;50.454;30.466;2022-12-18T02:57:58;-2.40;99.90
35313;DHT22;21425;50.454;30.466;2022-12-18T03:00:37;-2.40;99.90
35313;DHT22;21425;50.454;30.466;2022-12-18T03:03:18;-2.40;99.90
35313;DHT22;21425;50.454;30.466;2022-12-18T03:05:55;-2.30;99.90
35313;DHT22;21425;50.454;30.466;2022-12-18T03:08:31;-2.50;99.90
35313;DHT22;21425;50.454;30.466;2022-12-18T03:11:04;-2.50;99.90
35313;DHT22;21425;50.454;30.466;2022-12-18T03:13:54;-2.50;99.90
35313;DHT22;21425;50.454;30.466;2022-12-18T03:16:26;-2.50;99.90
35313;DHT22;21425;50.454;30.466;2022-12-18T03:18:56;-2.60;99.90
35313;DHT22;21425;50.454;30.466;2022-12-18T03:21:32;-2.70;99.90
35313;DHT22;21425;50.454;30.466;2022-12-18T03:23:59;-2.60;99.90
35313;DHT22;21425;50.454;30.466;2022-12-18T03:26:27;-2.50;99.90
35313;DHT22;21425;50.454;30.466;2022-12-18T03:29:00;-2.60;99.90
35313;DHT22;21425;50.454;30.466;2022-12-18T03:31:29;-2.60;99.90
35313;DHT22;21425;50.454;30.466;2022-12-18T03:33:59;-2.40;99.90
35313;DHT22;21425;50.454;30.466;2022-12-18T03:36:26;-1.80;99.90
35313;DHT22;21425;50.454;30.466;2022-12-18T03:38:55;-2.80;99.90
35313;DHT22;21425;50.454;30.466;2022-12-18T03:52:25;-2.90;99.90
35313;DHT22;21425;50.454;30.466;2022-12-18T03:54:54;-2.80;99.90
35313;DHT22;21425;50.454;30.466;2022-12-18T03:57:22;-3.00;99.90
35313;DHT22;21425;50.454;30.466;2022-12-18T03:59:51;-2.80;99.90
35313;DHT22;21425;50.454;30.466;2022-12-18T04:02:21;-2.70;99.90
35313;DHT22;21425;50.454;30.466;2022-12-18T04:04:51;-2.70;99.90
35313;DHT22;21425;50.454;30.466;2022-12-18T04:07:19;-2.80;99.90
35313;DHT22;21425;50.454;30.466;2022-12-18T04:09:46;-2.90;99.90
35313;DHT22;21425;50.454;30.466;2022-12-18T04:12:13;-2.80;99.90
35313;DHT22;21425;50.454;30.466;2022-12-18T04:14:39;-2.80;99.90
35313;DHT22;21425;50.454;30.466;2022-12-18T04:17:05;-2.90;99.90
35313;DHT22;21425;50.454;30.466;2022-12-18T04:19:30;-2.90;99.90
35313;DHT22;21425;50.454;30.466;2022-12-18T04:21:56;-2.90;99.90
35313;DHT22;21425;50.454;30.466;2022-12-18T04:24:22;-2.90;99.90
35313;DHT22;21425;50.454;30.466;2022-12-18T04:26:47;-2.90;99.90
35313;DHT22;21425;50.454;30.466;2022-12-18T04:29:13;-3.00;99.90
35313;DHT22;21425;50.454;30.466;2022-12-18T04:31:38;-3.00;99.90
35313;DHT22;21425;50.454;30.466;2022-12-18T04:34:04;-3.30;99.90
35313;DHT22;21425;50.454;30.466;2022-12-18T04:36:30;-3.00;99.90
35313;DHT22;21425;50.454;30.466;2022-12-18T04:38:55;-3.00;99.90
35313;DHT22;21425;50.454;30.466;2022-12-18T04:41:21;-3.10;99.90
35313;DHT22;21425;50.454;30.466;2022-12-18T04:43:46;-3.10;99.90
35313;DHT22;21425;50.454;30.466;2022-12-18T04:46:12;-3.00;99.90
35313;DHT22;21425;50.454;30.466;2022-12-18T04:48:38;-3.10;99.90
35313;DHT22;21425;50.454;30.466;2022-12-18T04:51:05;-3.10;99.90
35313;DHT22;21425;50.454;30.466;2022-12-18T04:53:31;-3.20;99.90
35313;DHT22;21425;50.454;30.466;2022-12-18T04:56:11;-1.30;99.90
35313;DHT22;21425;50.454;30.466;2022-12-18T04:58:39;-3.20;99.90
35313;DHT22;21425;50.454;30.466;2022-12-18T05:01:05;-3.20;99.90
35313;DHT22;21425;50.454;30.466;2022-12-18T05:03:31;-3.10;99.90
35313;DHT22;21425;50.454;30.466;2022-12-18T05:05:57;-3.10;99.90
35313;DHT22;21425;50.454;30.466;2022-12-18T05:08:23;-3.20;99.90
35313;DHT22;21425;50.454;30.466;2022-12-18T05:10:48;-3.20;99.90
35313;DHT22;21425;50.454;30.466;2022-12-18T05:13:14;-3.30;99.90
35313;DHT22;21425;50.454;30.466;2022-12-18T05:15:39;-3.30;99.90
35313;DHT22;21425;50.454;30.466;2022-12-18T05:18:07;-3.30;99.90
35313;DHT22;21425;50.454;30.466;2022-12-18T05:20:33;-3.30;99.90
35313;DHT22;21425;50.454;30.466;2022-12-18T05:22:59;-3.20;99.90
35313;DHT22;21425;50.454;30.466;2022-12-18T05:25:24;-3.30;99.90
35313;DHT22;21425;50.454;30.466;2022-12-18T05:27:50;-3.30;99.90
35313;DHT22;21425;50.454;30.466;2022-12-18T05:30:16;-3.30;99.90
35313;DHT22;21425;50.454;30.466;2022-12-18T05:32:42;-3.40;99.90
35313;DHT22;21425;50.454;30.466;2022-12-18T05:35:10;-3.40;99.90
35313;DHT22;21425;50.454;30.466;2022-12-18T05:37:35;-3.30;99.90
35313;DHT22;21425;50.454;30.466;2022-12-18T05:40:03;-3.30;99.90
35313;DHT22;21425;50.454;30.466;2022-12-18T05:42:28;-3.40;99.90
35313;DHT22;21425;50.454;30.466;2022-12-18T05:44:54;-3.40;99.90
35313;DHT22;21425;50.454;30.466;2022-12-18T05:47:20;-3.40;99.90
35313;DHT22;21425;50.454;30.466;2022-12-18T05:49:45;-3.40;99.90
35313;DHT22;21425;50.454;30.466;2022-12-18T05:52:11;-3.60;99.90
35313;DHT22;21425;50.454;30.466;2022-12-18T05:54:36;-3.40;99.90
35313;DHT22;21425;50.454;30.466;2022-12-18T05:57:02;-3.40;99.90
35313;DHT22;21425;50.454;30.466;2022-12-18T05:59:27;-3.40;99.90
35313;DHT22;21425;50.454;30.466;2022-12-18T06:01:53;-3.50;99.90
35313;DHT22;21425;50.454;30.466;2022-12-18T06:04:19;-3.50;99.90
35313;DHT22;21425;50.454;30.466;2022-12-18T06:06:44;-3.50;99.90
35313;DHT22;21425;50.454;30.466;2022-12-18T06:09:10;-3.50;99.90
35313;DHT22;21425;50.454;30.466;2022-12-18T06:11:36;-3.50;99.90
35313;DHT22;21425;50.454;30.466;2022-12-18T06:14:03;-3.40;99.90
35313;DHT22;21425;50.454;30.466;2022-12-18T06:16:30;-3.60;99.90
35313;DHT22;21425;50.454;30.466;2022-12-18T06:19:00;-3.70;99.90
35313;DHT22;21425;50.454;30.466;2022-12-18T06:21:26;-3.60;99.90
35313;DHT22;21425;50.454;30.466;2022-12-18T06:23:52;-3.60;99.90
35313;DHT22;21425;50.454;30.466;2022-12-18T06:26:18;-3.60;99.90
35313;DHT22;21425;50.454;30.466;2022-12-18T06:28:43;-3.70;99.90
35313;DHT22;21425;50.454;30.466;2022-12-18T06:31:10;-3.60;99.90
35313;DHT22;21425;50.454;30.466;2022-12-18T06:33:37;-3.70;99.90
35313;DHT22;21425;50.454;30.466;2022-12-18T06:36:10;-3.60;99.90
35313;DHT22;21425;50.454;30.466;2022-12-18T06:38:40;-2.10;99.90
35313;DHT22;21425;50.454;30.466;2022-12-18T06:41:11;-3.60;99.90
35313;DHT22;21425;50.454;30.466;2022-12-18T06:43:37;-3.70;99.90
35313;DHT22;21425;50.454;30.466;2022-12-18T06:46:04;-3.70;99.90
35313;DHT22;21425;50.454;30.466;2022-12-18T06:48:30;-3.70;99.90
35313;DHT22;21425;50.454;30.466;2022-12-18T06:50:56;-3.70;99.90
35313;DHT22;21425;50.454;30.466;2022-12-18T06:53:22;-3.60;99.90
35313;DHT22;21425;50.454;30.466;2022-12-18T06:55:47;-3.60;99.90
35313;DHT22;21425;50.454;30.466;2022-12-18T06:58:13;-3.60;99.90
35313;DHT22;21425;50.454;30.466;2022-12-18T07:00:39;-3.70;99.90
35313;DHT22;21425;50.454;30.466;2022-12-18T07:03:04;-3.70;99.90
35313;DHT22;21425;50.454;30.466;2022-12-18T07:05:30;-3.70;99.90
35313;DHT22;21425;50.454;30.466;2022-12-18T07:07:55;-3.70;99.90
35313;DHT22;21425;50.454;30.466;2022-12-18T07:10:21;-3.60;99.90
35313;DHT22;21425;50.454;30.466;2022-12-18T07:12:47;-3.70;99.90
35313;DHT22;21425;50.454;30.466;2022-12-18T07:15:12;-3.70;99.90
35313;DHT22;21425;50.454;30.466;2022-12-18T07:17:38;-3.60;99.90
35313;DHT22;21425;50.454;30.466;2022-12-18T07:20:04;-3.70;99.90
35313;DHT22;21425;50.454;30.466;2022-12-18T07:22:30;-3.80;99.90
35313;DHT22;21425;50.454;30.466;2022-12-18T07:24:55;-3.70;99.90
35313;DHT22;21425;50.454;30.466;2022-12-18T07:27:21;-3.80;99.90
35313;DHT22;21425;50.454;30.466;2022-12-18T07:29:47;-3.60;99.90
35313;DHT22;21425;50.454;30.466;2022-12-18T07:32:13;-3.70;99.90
35313;DHT22;21425;50.454;30.466;2022-12-18T07:34:38;-3.70;99.90
35313;DHT22;21425;50.454;30.466;2022-12-18T07:37:04;-3.60;99.90
35313;DHT22;21425;50.454;30.466;2022-12-18T07:39:30;-3.70;99.90
35313;DHT22;21425;50.454;30.466;2022-12-18T07:41:56;-3.70;99.90
35313;DHT22;21425;50.454;30.466;2022-12-18T07:44:40;-3.70;99.90
35313;DHT22;21425;50.454;30.466;2022-12-18T07:47:06;-3.60;99.90
35313;DHT22;21425;50.454;30.466;2022-12-18T07:49:32;-3.70;99.90
35313;DHT22;21425;50.454;30.466;2022-12-18T07:51:58;-3.70;99.90
35313;DHT22;21425;50.454;30.466;2022-12-18T07:54:24;-3.80;99.90
35313;DHT22;21425;50.454;30.466;2022-12-18T07:56:51;-3.70;99.90
35313;DHT22;21425;50.454;30.466;2022-12-18T07:59:17;-3.60;99.90
35313;DHT22;21425;50.454;30.466;2022-12-18T08:01:42;-3.70;99.90
35313;DHT22;21425;50.454;30.466;2022-12-18T08:04:08;-3.70;99.90
35313;DHT22;21425;50.454;30.466;2022-12-18T08:06:34;-3.80;99.90
35313;DHT22;21425;50.454;30.466;2022-12-18T08:08:59;-3.70;99.90
35313;DHT22;21425;50.454;30.466;2022-12-18T08:11:26;-1.50;99.90
35313;DHT22;21425;50.454;30.466;2022-12-18T08:13:53;-3.70;99.90
35313;DHT22;21425;50.454;30.466;2022-12-18T08:16:19;-2.90;99.90
35313;DHT22;21425;50.454;30.466;2022-12-18T08:18:46;-3.60;99.90
35313;DHT22;21425;50.454;30.466;2022-12-18T08:21:19;-3.60;99.90
35313;DHT22;21425;50.454;30.466;2022-12-18T08:23:46;-3.60;99.90
35313;DHT22;21425;50.454;30.466;2022-12-18T08:26:13;-3.50;99.90
35313;DHT22;21425;50.454;30.466;2022-12-18T08:28:39;-3.10;99.90
35313;DHT22;21425;50.454;30.466;2022-12-18T08:31:06;-3.80;99.90
35313;DHT22;21425;50.454;30.466;2022-12-18T08:33:32;-3.70;99.90
35313;DHT22;21425;50.454;30.466;2022-12-18T08:36:01;-3.70;99.90
35313;DHT22;21425;50.454;30.466;2022-12-18T08:38:27;-3.60;99.90
35313;DHT22;21425;50.454;30.466;2022-12-18T08:41:03;-3.60;99.90
35313;DHT22;21425;50.454;30.466;2022-12-18T08:43:29;-3.10;99.90
35313;DHT22;21425;50.454;30.466;2022-12-18T08:46:14;-3.50;99.90
35313;DHT22;21425;50.454;30.466;2022-12-18T08:48:40;-3.60;99.90
35313;DHT22;21425;50.454;30.466;2022-12-18T08:51:08;-3.70;99.90
35313;DHT22;21425;50.454;30.466;2022-12-18T08:53:37;-3.70;99.90
35313;DHT22;21425;50.454;30.466;2022-12-18T08:56:04;-5.20;99.90
35313;DHT22;21425;50.454;30.466;2022-12-18T08:58:36;-3.60;99.90
35313;DHT22;21425;50.454;30.466;2022-12-18T09:01:03;-1.90;99.90
35313;DHT22;21425;50.454;30.466;2022-12-18T09:03:30;-3.80;99.90
35313;DHT22;21425;50.454;30.466;2022-12-18T09:05:56;-3.70;99.90
35313;DHT22;21425;50.454;30.466;2022-12-18T09:08:22;-3.70;99.90
35313;DHT22;21425;50.454;30.466;2022-12-18T09:10:49;-2.30;99.90
35313;DHT22;21425;50.454;30.466;2022-12-18T09:13:16;-3.60;99.90
35313;DHT22;21425;50.454;30.466;2022-12-18T09:18:09;-3.70;99.90
35313;DHT22;21425;50.454;30.466;2022-12-18T09:20:36;-3.90;99.90
35313;DHT22;21425;50.454;30.466;2022-12-18T09:23:02;-3.80;99.90
35313;DHT22;21425;50.454;30.466;2022-12-18T09:25:29;-3.70;99.90
35313;DHT22;21425;50.454;30.466;2022-12-18T09:28:13;-3.80;99.90
35313;DHT22;21425;50.454;30.466;2022-12-18T09:30:42;-3.60;99.90
35313;DHT22;21425;50.454;30.466;2022-12-18T09:33:09;-3.80;99.90
35313;DHT22;21425;50.454;30.466;2022-12-18T09:35:38;-3.80;99.90
35313;DHT22;21425;50.454;30.466;2022-12-18T09:38:04;-3.90;99.90
35313;DHT22;21425;50.454;30.466;2022-12-18T09:40:56;-3.80;99.90
35313;DHT22;21425;50.454;30.466;2022-12-18T09:46:02;-3.80;99.90
35313;DHT22;21425;50.454;30.466;2022-12-18T09:48:31;-3.80;99.90
35313;DHT22;21425;50.454;30.466;2022-12-18T09:51:44;-3.90;99.90
35313;DHT22;21425;50.454;30.466;2022-12-18T09:53:55;-3.90;99.90
35313;DHT22;21425;50.454;30.466;2022-12-18T09:56:24;-3.80;99.90
35313;DHT22;21425;50.454;30.466;2022-12-18T09:58:58;-4.00;99.90
35313;DHT22;21425;50.454;30.466;2022-12-18T10:01:26;-4.00;99.90
35313;DHT22;21425;50.454;30.466;2022-12-18T10:03:53;-4.10;99.90
35313;DHT22;21425;50.454;30.466;2022-12-18T10:06:38;-4.00;99.90
35313;DHT22;21425;50.454;30.466;2022-12-18T10:09:12;-3.90;99.90
35313;DHT22;21425;50.454;30.466;2022-12-18T10:19:56;-3.90;99.90
35313;DHT22;21425;50.454;30.466;2022-12-18T10:22:43;-3.80;99.90
35313;DHT22;21425;50.454;30.466;2022-12-18T10:25:26;-3.80;99.90
35313;DHT22;21425;50.454;30.466;2022-12-18T10:27:57;-3.80;99.90
35313;DHT22;21425;50.454;30.466;2022-12-18T10:30:24;-3.20;99.90
35313;DHT22;21425;50.454;30.466;2022-12-18T10:32:50;-3.80;99.90
35313;DHT22;21425;50.454;30.466;2022-12-18T10:35:26;-3.90;99.90
35313;DHT22;21425;50.454;30.466;2022-12-18T10:40:29;-3.90;99.90
35313;DHT22;21425;50.454;30.466;2022-12-18T10:43:12;-4.00;99.90
35313;DHT22;21425;50.454;30.466;2022-12-18T10:45:39;-4.00;99.90
35313;DHT22;21425;50.454;30.466;2022-12-18T10:48:05;-4.00;99.90
35313;DHT22;21425;50.454;30.466;2022-12-18T10:50:47;-4.10;99.90
35313;DHT22;21425;50.454;30.466;2022-12-18T10:53:20;-4.00;99.90
35313;DHT22;21425;50.454;30.466;2022-12-18T10:55:47;-4.00;99.90
35313;DHT22;21425;50.454;30.466;2022-12-18T10:58:21;-4.10;99.90
35313;DHT22;21425;50.454;30.466;2022-12-18T11:01:08;-4.10;99.90
35313;DHT22;21425;50.454;30.466;2022-12-18T11:08:28;-3.70;99.90
35313;DHT22;21425;50.454;30.466;2022-12-18T11:10:54;-4.00;99.90
35313;DHT22;21425;50.454;30.466;2022-12-18T11:13:25;-3.90;99.90
35313;DHT22;21425;50.454;30.466;2022-12-18T11:15:51;-4.10;99.90
35313;DHT22;21425;50.454;30.466;2022-12-18T11:18:24;-4.10;99.90
35313;DHT22;21425;50.454;30.466;2022-12-18T11:23:25;-4.10;99.90
35313;DHT22;21425;50.454;30.466;2022-12-18T11:25:54;-4.00;99.90
35313;DHT22;21425;50.454;30.466;2022-12-18T11:28:50;-4.00;99.90
35313;DHT22;21425;50.454;30.466;2022-12-18T11:31:25;-4.10;99.90
35313;DHT22;21425;50.454;30.466;2022-12-18T11:36:36;-4.20;99.90
35313;DHT22;21425;50.454;30.466;2022-12-18T11:39:13;-4.30;99.90
35313;DHT22;21425;50.454;30.466;2022-12-18T11:42:32;-4.20;99.90
35313;DHT22;21425;50.454;30.466;2022-12-18T11:44:50;-4.10;99.90
35313;DHT22;21425;50.454;30.466;2022-12-18T11:47:29;-4.20;99.90
35313;DHT22;21425;50.454;30.466;2022-12-18T11:50:01;-4.20;99.90
35313;DHT22;21425;50.454;30.466;2022-12-18T11:52:35;-4.20;99.90
35313;DHT22;21425;50.454;30.466;2022-12-18T11:55:13;-4.10;99.90
35313;DHT22;21425;50.454;30.466;2022-12-18T11:57:52;-4.20;99.90
35313;DHT22;21425;50.454;30.466;2022-12-18T12:00:22;-4.20;99.90
35313;DHT22;21425;50.454;30.466;2022-12-18T12:13:32;-4.20;99.90
35313;DHT22;21425;50.454;30.466;2022-12-18T12:16:29;-4.20;99.90
35313;DHT22;21425;50.454;30.466;2022-12-18T12:19:13;-4.20;99.90
35313;DHT22;21425;50.454;30.466;2022-12-18T12:30:07;-4.20;99.90
35313;DHT22;21425;50.454;30.466;2022-12-18T12:32:45;-4.20;99.90
35313;DHT22;21425;50.454;30.466;2022-12-18T12:35:58;-4.10;99.90
35313;DHT22;21425;50.454;30.466;2022-12-18T12:38:31;-4.10;99.90
35313;DHT22;21425;50.454;30.466;2022-12-18T12:41:02;-4.10;99.90
35313;DHT22;21425;50.454;30.466;2022-12-18T12:43:39;-4.10;99.90
35313;DHT22;21425;50.454;30.466;2022-12-18T12:46:09;-4.20;99.90
35313;DHT22;21425;50.454;30.466;2022-12-18T12:48:47;-4.20;99.90
35313;DHT22;21425;50.454;30.466;2022-12-18T12:53:46;-4.20;99.90
35313;DHT22;21425;50.454;30.466;2022-12-18T12:56:15;-4.10;99.90
35313;DHT22;21425;50.454;30.466;2022-12-18T13:01:37;-4.00;99.90
35313;DHT22;21425;50.454;30.466;2022-12-18T13:07:15;-4.10;99.90
35313;DHT22;21425;50.454;30.466;2022-12-18T13:15:38;-4.30;99.90
35313;DHT22;21425;50.454;30.466;2022-12-18T13:20:45;-4.20;99.90
35313;DHT22;21425;50.454;30.466;2022-12-18T13:34:19;-4.10;99.90
35313;DHT22;21425;50.454;30.466;2022-12-18T13:36:45;-4.20;99.90
35313;DHT22;21425;50.454;30.466;2022-12-18T13:41:41;-4.20;99.90
35313;DHT22;21425;50.454;30.466;2022-12-18T13:44:38;-4.20;99.90
35313;DHT22;21425;50.454;30.466;2022-12-18T13:47:34;-4.20;99.90
35313;DHT22;21425;50.454;30.466;2022-12-18T13:50:24;-4.30;99.90
35313;DHT22;21425;50.454;30.466;2022-12-18T13:52:51;-4.40;99.90
35313;DHT22;21425;50.454;30.466;2022-12-18T13:55:19;-4.30;99.90
35313;DHT22;21425;50.454;30.466;2022-12-18T13:57:45;-4.30;99.90
35313;DHT22;21425;50.454;30.466;2022-12-18T14:00:28;-4.40;99.90
35313;DHT22;21425;50.454;30.466;2022-12-18T14:02:57;-4.40;99.90
35313;DHT22;21425;50.454;30.466;2022-12-18T14:05:28;-4.40;99.90
35313;DHT22;21425;50.454;30.466;2022-12-18T14:07:55;-4.40;99.90
35313;DHT22;21425;50.454;30.466;2022-12-18T14:10:24;-4.50;99.90
35313;DHT22;21425;50.454;30.466;2022-12-18T14:12:51;-4.50;99.90
35313;DHT22;21425;50.454;30.466;2022-12-18T14:18:02;-4.50;99.90
35313;DHT22;21425;50.454;30.466;2022-12-18T14:20:31;-4.50;99.90
35313;DHT22;21425;50.454;30.466;2022-12-18T14:22:57;-4.40;99.90
35313;DHT22;21425;50.454;30.466;2022-12-18T14:25:24;-4.40;99.90
35313;DHT22;21425;50.454;30.466;2022-12-18T14:30:32;-4.50;99.90
35313;DHT22;21425;50.454;30.466;2022-12-18T14:33:13;-4.50;99.90
35313;DHT22;21425;50.454;30.466;2022-12-18T14:35:41;-4.50;99.90
35313;DHT22;21425;50.454;30.466;2022-12-18T14:41:16;-4.50;99.90
35313;DHT22;21425;50.454;30.466;2022-12-18T14:43:44;-4.70;99.90
35313;DHT22;21425;50.454;30.466;2022-12-18T14:48:59;-4.70;99.90
35313;DHT22;21425;50.454;30.466;2022-12-18T14:51:27;-4.70;99.90
35313;DHT22;21425;50.454;30.466;2022-12-18T14:53:59;-4.80;99.90
35313;DHT22;21425;50.454;30.466;2022-12-18T14:56:36;-4.70;99.90
35313;DHT22;21425;50.454;30.466;2022-12-18T14:59:30;-4.70;99.90
35313;DHT22;21425;50.454;30.466;2022-12-18T15:02:03;-4.70;99.90
35313;DHT22;21425;50.454;30.466;2022-12-18T15:04:35;-4.80;99.90
35313;DHT22;21425;50.454;30.466;2022-12-18T15:09:37;-4.80;99.90
35313;DHT22;21425;50.454;30.466;2022-12-18T15:12:03;-4.80;99.90
35313;DHT22;21425;50.454;30.466;2022-12-18T15:14:40;-4.80;99.90
35313;DHT22;21425;50.454;30.466;2022-12-18T15:17:20;-4.90;99.90
35313;DHT22;21425;50.454;30.466;2022-12-18T15:19:48;-5.10;99.90
35313;DHT22;21425;50.454;30.466;2022-12-18T15:24:48;-4.90;99.90
35313;DHT22;21425;50.454;30.466;2022-12-18T15:27:35;-4.90;99.90
35313;DHT22;21425;50.454;30.466;2022-12-18T15:32:35;-5.00;99.90
35313;DHT22;21425;50.454;30.466;2022-12-18T15:35:22;-4.90;99.90
35313;DHT22;21425;50.454;30.466;2022-12-18T15:37:49;-4.90;99.90
35313;DHT22;21425;50.454;30.466;2022-12-18T15:40:21;-4.70;99.90
35313;DHT22;21425;50.454;30.466;2022-12-18T15:42:47;-4.70;99.90
35313;DHT22;21425;50.454;30.466;2022-12-18T15:45:32;-4.90;99.90
35313;DHT22;21425;50.454;30.466;2022-12-18T15:47:58;-5.00;99.90
35313;DHT22;21425;50.454;30.466;2022-12-18T15:50:24;-5.00;99.90
35313;DHT22;21425;50.454;30.466;2022-12-18T15:52:52;-4.90;99.90
35313;DHT22;21425;50.454;30.466;2022-12-18T15:55:22;-5.00;99.90
35313;DHT22;21425;50.454;30.466;2022-12-18T15:58:08;-5.00;99.90
35313;DHT22;21425;50.454;30.466;2022-12-18T16:00:35;-5.00;99.90
35313;DHT22;21425;50.454;30.466;2022-12-18T16:03:02;-5.00;99.90
35313;DHT22;21425;50.454;30.466;2022-12-18T16:05:28;-5.00;99.90
35313;DHT22;21425;50.454;30.466;2022-12-18T19:43:13;-5.80;99.90
35313;DHT22;21425;50.454;30.466;2022-12-18T19:45:39;-5.90;99.90
35313;DHT22;21425;50.454;30.466;2022-12-18T19:48:06;-6.00;99.90
35313;DHT22;21425;50.454;30.466;2022-12-18T19:50:31;-6.20;99.90
35313;DHT22;21425;50.454;30.466;2022-12-18T19:52:57;-6.10;99.90
35313;DHT22;21425;50.454;30.466;2022-12-18T19:55:23;-6.10;99.90
35313;DHT22;21425;50.454;30.466;2022-12-18T19:57:48;-6.10;99.90
35313;DHT22;21425;50.454;30.466;2022-12-18T20:00:14;-6.10;99.90
35313;DHT22;21425;50.454;30.466;2022-12-18T20:02:40;-6.20;99.90
35313;DHT22;21425;50.454;30.466;2022-12-18T20:05:08;-6.20;99.90
35313;DHT22;21425;50.454;30.466;2022-12-18T20:07:34;-6.20;99.90
35313;DHT22;21425;50.454;30.466;2022-12-18T20:10:00;-6.30;99.90
35313;DHT22;21425;50.454;30.466;2022-12-18T20:12:26;-6.20;99.90
35313;DHT22;21425;50.454;30.466;2022-12-18T20:14:52;-5.60;99.90
35313;DHT22;21425;50.454;30.466;2022-12-18T20:17:18;-6.30;99.90
35313;DHT22;21425;50.454;30.466;2022-12-18T20:19:43;-6.20;99.90
35313;DHT22;21425;50.454;30.466;2022-12-18T20:22:09;-6.20;99.90
35313;DHT22;21425;50.454;30.466;2022-12-18T20:24:34;-6.30;99.90
35313;DHT22;21425;50.454;30.466;2022-12-18T20:27:00;-6.20;99.90
35313;DHT22;21425;50.454;30.466;2022-12-18T20:29:26;-6.20;99.90
35313;DHT22;21425;50.454;30.466;2022-12-18T20:31:51;-6.30;99.90
35313;DHT22;21425;50.454;30.466;2022-12-18T20:34:17;-6.20;99.90
35313;DHT22;21425;50.454;30.466;2022-12-18T20:36:43;-6.30;99.90
35313;DHT22;21425;50.454;30.466;2022-12-18T20:39:09;-6.30;99.90
35313;DHT22;21425;50.454;30.466;2022-12-18T20:41:34;-6.20;99.90
35313;DHT22;21425;50.454;30.466;2022-12-18T20:44:00;-6.40;99.90
35313;DHT22;21425;50.454;30.466;2022-12-18T20:46:26;-6.40;99.90
35313;DHT22;21425;50.454;30.466;2022-12-18T20:48:51;-6.50;99.90
35313;DHT22;21425;50.454;30.466;2022-12-18T20:51:19;-6.70;99.90
35313;DHT22;21425;50.454;30.466;2022-12-18T20:53:45;-6.60;99.90
35313;DHT22;21425;50.454;30.466;2022-12-18T20:56:16;-6.60;99.90
35313;DHT22;21425;50.454;30.466;2022-12-18T20:58:42;-6.50;99.90
35313;DHT22;21425;50.454;30.466;2022-12-18T21:01:16;-6.60;99.90
35313;DHT22;21425;50.454;30.466;2022-12-18T21:03:44;-6.50;99.90
35313;DHT22;21425;50.454;30.466;2022-12-18T21:06:11;-6.60;99.90
35313;DHT22;21425;50.454;30.466;2022-12-18T21:08:37;-6.60;99.90
35313;DHT22;21425;50.454;30.466;2022-12-18T21:14:13;-6.50;99.90
35313;DHT22;21425;50.454;30.466;2022-12-18T21:16:40;-6.60;99.90
35313;DHT22;21425;50.454;30.466;2022-12-18T21:19:08;-6.80;99.90
35313;DHT22;21425;50.454;30.466;2022-12-18T21:21:34;-6.80;99.90
35313;DHT22;21425;50.454;30.466;2022-12-18T21:24:00;-6.80;99.90
35313;DHT22;21425;50.454;30.466;2022-12-18T21:26:26;-6.90;99.90
35313;DHT22;21425;50.454;30.466;2022-12-18T21:28:53;-7.00;99.90
35313;DHT22;21425;50.454;30.466;2022-12-18T21:31:20;-7.00;99.90
35313;DHT22;21425;50.454;30.466;2022-12-18T21:33:47;-7.20;99.90
35313;DHT22;21425;50.454;30.466;2022-12-18T21:36:13;-7.00;99.90
35313;DHT22;21425;50.454;30.466;2022-12-18T21:38:38;-7.10;99.90
35313;DHT22;21425;50.454;30.466;2022-12-18T21:41:05;-7.20;99.90
35313;DHT22;21425;50.454;30.466;2022-12-18T21:43:32;-7.40;99.90
35313;DHT22;21425;50.454;30.466;2022-12-18T21:46:16;-7.10;99.90
35313;DHT22;21425;50.454;30.466;2022-12-18T21:48:42;-7.30;99.90
